Time;durP1;ratioP1;P1;durP2;ratioP2;P2;SDS_P1;SDS_P2;PMS_P1;PMS_P2;Temp;Humidity;BMP_temperature;BMP_pressure;BME280_temperature;BME280_humidity;BME280_pressure;Samples;Min_cycle;Max_cycle;Signal;HPM_P1;HPM_P2
2022/07/03 00:00:09;;;;;;;4.18;2.97;;;;;;;16.00;100.00;164749.81;5009044;28;20045;-61
2022/07/03 00:02:34;;;;;;;5.53;2.78;;;;;;;16.00;100.00;164749.81;5010543;28;20033;-61
2022/07/03 00:04:59;;;;;;;9.18;3.20;;;;;;;15.98;100.00;164744.38;5006189;28;20046;-61
2022/07/03 00:07:25;;;;;;;3.22;2.72;;;;;;;15.98;100.00;164744.38;4991222;28;20042;-61
2022/07/03 00:09:50;;;;;;;3.55;2.83;;;;;;;15.97;100.00;164741.72;4989611;28;20033;-61
2022/07/03 00:12:16;;;;;;;5.60;3.75;;;;;;;15.96;100.00;164739.00;5005938;28;20041;-61
2022/07/03 00:14:41;;;;;;;4.88;2.67;;;;;;;15.94;100.00;164734.91;5013366;28;20025;-61
2022/07/03 00:17:06;;;;;;;7.05;3.55;;;;;;;15.93;100.00;164730.84;4997414;28;20026;-61
2022/07/03 00:19:32;;;;;;;3.90;2.53;;;;;;;15.90;100.00;164724.09;4994859;28;20085;-61
2022/07/03 00:22:04;;;;;;;2.75;2.53;;;;;;;15.85;100.00;164711.88;4993195;28;20085;-61
2022/07/03 00:24:34;;;;;;;3.22;2.90;;;;;;;15.82;100.00;164703.69;5003359;28;20179;-61
2022/07/03 00:27:01;;;;;;;2.72;2.53;;;;;;;15.79;100.00;164695.59;5012445;28;20057;-61
2022/07/03 00:29:36;;;;;;;2.38;2.17;;;;;;;15.79;100.00;164694.22;5013664;28;20528;-60
2022/07/03 00:32:02;;;;;;;4.20;3.25;;;;;;;15.79;100.00;164695.59;5012800;28;20057;-60
2022/07/03 00:34:29;;;;;;;5.82;3.08;;;;;;;15.79;100.00;164695.59;5014273;28;20025;-62
2022/07/03 00:36:56;;;;;;;5.85;2.42;;;;;;;15.77;100.00;164690.16;4995168;28;20052;-61
2022/07/03 00:39:22;;;;;;;3.58;3.28;;;;;;;15.74;100.00;164682.06;4994610;28;20093;-61
2022/07/03 00:42:00;;;;;;;4.90;3.20;;;;;;;15.71;100.00;164675.25;4992827;28;20066;-61
2022/07/03 00:44:27;;;;;;;5.18;3.00;;;;;;;15.67;100.00;164663.13;5004003;28;20033;-61
2022/07/03 00:46:54;;;;;;;3.43;3.07;;;;;;;15.65;100.00;164659.03;5012742;28;20046;-61
2022/07/03 00:49:23;;;;;;;7.70;2.85;;;;;;;15.60;100.00;164644.16;5013588;28;20507;-61
2022/07/03 00:51:52;;;;;;;3.83;3.40;;;;;;;15.53;100.00;164627.88;4997069;28;20049;-61
2022/07/03 00:54:21;;;;;;;3.53;3.22;;;;;;;15.48;100.00;164614.34;5000685;28;20032;-61
2022/07/03 00:56:50;;;;;;;7.13;4.38;;;;;;;15.46;100.00;164607.59;5012133;28;20176;-62
2022/07/03 00:59:15;;;;;;;7.05;2.75;;;;;;;15.43;100.00;164600.84;4994336;28;20362;-62
2022/07/03 01:01:41;;;;;;;4.93;3.25;;;;;;;15.41;100.00;164595.41;4992923;28;20042;-62
2022/07/03 01:04:17;;;;;;;3.58;2.97;;;;;;;15.38;100.00;164587.25;5001823;28;20488;-62
2022/07/03 01:07:31;;;;;;;7.20;3.28;;;;;;;15.36;100.00;164583.22;5011448;28;20519;-62
2022/07/03 01:10:16;;;;;;;6.45;2.70;;;;;;;15.35;100.00;164579.16;5001916;28;20042;-62
2022/07/03 01:13:04;;;;;;;7.85;2.85;;;;;;;15.26;100.00;164556.19;5012723;28;20026;-62
2022/07/03 01:15:57;;;;;;;6.88;2.70;;;;;;;15.30;100.00;164566.97;4999915;28;20048;-59
2022/07/03 01:18:22;;;;;;;5.20;2.83;;;;;;;15.25;100.00;164553.47;5011375;28;20432;-59
2022/07/03 01:20:58;;;;;;;8.60;4.13;;;;;;;15.20;100.00;164541.28;5011962;28;20125;-62
2022/07/03 01:23:50;;;;;;;3.25;2.70;;;;;;;15.13;100.00;164522.31;5013207;28;20650;-63
2022/07/03 01:26:17;;;;;;;4.32;2.75;;;;;;;15.04;100.00;164499.28;5009629;28;20041;-63
2022/07/03 01:28:45;;;;;;;3.70;2.75;;;;;;;14.97;100.00;164480.34;4994045;28;20445;-63
2022/07/03 01:31:17;;;;;;;3.15;2.80;;;;;;;14.97;100.00;164480.34;4991924;28;20046;-63
2022/07/03 01:33:46;;;;;;;7.35;3.30;;;;;;;14.96;100.00;164476.28;4993405;28;20052;-63
2022/07/03 01:36:15;;;;;;;4.35;3.70;;;;;;;14.93;100.00;164468.19;4993205;28;20046;-63
2022/07/03 01:38:42;;;;;;;3.17;2.97;;;;;;;14.87;100.00;164453.31;4994837;28;20430;-63
2022/07/03 01:41:10;;;;;;;3.30;3.00;;;;;;;14.81;100.00;164438.41;5010768;28;20041;-63
2022/07/03 01:43:45;;;;;;;5.47;3.78;;;;;;;14.79;100.00;164432.97;5013007;28;20068;-63
2022/07/03 01:46:12;;;;;;;10.90;3.88;;;;;;;14.70;100.00;164408.66;4998474;28;20054;-63
2022/07/03 01:48:42;;;;;;;8.75;4.30;;;;;;;14.58;100.00;164377.47;4992948;28;20037;-62
2022/07/03 01:51:12;;;;;;;3.08;2.75;;;;;;;14.50;100.00;164357.16;4993652;28;20073;-63
2022/07/03 01:53:46;;;;;;;3.33;3.03;;;;;;;14.44;100.00;164340.94;4993257;28;20021;-63
2022/07/03 01:56:11;;;;;;;2.92;2.67;;;;;;;14.40;100.00;164330.13;4990264;28;20582;-63
2022/07/03 01:58:37;;;;;;;4.15;2.80;;;;;;;14.36;100.00;164320.66;4993386;28;20173;-63
2022/07/03 02:01:06;;;;;;;4.65;2.92;;;;;;;14.31;100.00;164305.75;4991565;28;20182;-63
2022/07/03 02:03:34;;;;;;;5.00;4.50;;;;;;;14.21;100.00;164281.41;4992819;28;20026;-63
2022/07/03 02:06:15;;;;;;;5.70;3.90;;;;;;;14.12;100.00;164258.41;5008198;28;20073;-63
2022/07/03 02:09:02;;;;;;;3.08;2.85;;;;;;;14.05;100.00;164238.09;5011500;28;20037;-63
2022/07/03 02:11:32;;;;;;;6.07;3.13;;;;;;;13.97;100.00;164217.84;4991643;28;20046;-63
2022/07/03 02:14:25;;;;;;;4.88;3.47;;;;;;;13.92;100.00;164204.34;5003166;28;20516;-63
2022/07/03 02:16:54;;;;;;;3.92;3.30;;;;;;;13.87;100.00;164192.16;5010659;28;20068;-63
2022/07/03 02:19:27;;;;;;;5.05;3.72;;;;;;;13.87;100.00;164190.75;5008865;28;20417;-62
2022/07/03 02:21:56;;;;;;;6.40;4.38;;;;;;;13.81;100.00;164175.94;4991143;28;20038;-62
2022/07/03 02:24:26;;;;;;;4.00;3.35;;;;;;;13.78;100.00;164169.13;4992405;28;20088;-62
2022/07/03 02:26:59;;;;;;;3.15;2.90;;;;;;;13.70;100.00;164147.47;4999282;28;20046;-63
2022/07/03 02:29:31;;;;;;;3.65;3.33;;;;;;;13.63;100.00;164129.94;5007059;28;20041;-62
2022/07/03 02:31:59;;;;;;;7.50;4.13;;;;;;;13.58;100.00;164116.41;4990600;28;20070;-63
2022/07/03 02:34:27;;;;;;;3.50;3.08;;;;;;;13.49;100.00;164093.41;4991908;28;20022;-62
2022/07/03 02:36:57;;;;;;;3.88;3.42;;;;;;;13.41;100.00;164071.75;4991193;28;20469;-62
2022/07/03 02:39:50;;;;;;;3.92;3.53;;;;;;;13.37;100.00;164060.91;4996652;28;20473;-62
2022/07/03 02:42:39;;;;;;;4.38;4.07;;;;;;;13.29;100.00;164040.59;5009698;28;20045;-62
2022/07/03 02:45:07;;;;;;;4.93;4.00;;;;;;;13.22;100.00;164021.69;4990991;28;20081;-62
2022/07/03 02:47:32;;;;;;;6.03;3.53;;;;;;;13.14;100.00;164000.09;4991915;28;20089;-62
2022/07/03 02:50:21;;;;;;;5.00;4.05;;;;;;;13.06;100.00;163978.47;4995423;28;20129;-62
2022/07/03 02:53:05;;;;;;;5.10;3.78;;;;;;;12.99;100.00;163962.19;4995803;28;20022;-62
2022/07/03 02:55:41;;;;;;;4.10;3.75;;;;;;;12.93;100.00;163945.97;4990831;28;20043;-63
2022/07/03 02:58:18;;;;;;;7.43;3.97;;;;;;;12.91;100.00;163940.63;4991622;28;20109;-63
2022/07/03 03:00:57;;;;;;;8.48;5.38;;;;;;;12.88;100.00;163931.16;4995989;28;20140;-62
2022/07/03 03:03:27;;;;;;;6.20;4.63;;;;;;;12.82;100.00;163917.59;5011654;28;20139;-62
2022/07/03 03:05:57;;;;;;;5.13;4.63;;;;;;;12.81;100.00;163913.56;5009247;28;20096;-62
2022/07/03 03:08:29;;;;;;;8.90;4.47;;;;;;;12.78;100.00;163905.44;4998467;28;20029;-62
2022/07/03 03:11:01;;;;;;;5.75;4.50;;;;;;;12.73;100.00;163891.94;4990607;28;20076;-61
2022/07/03 03:13:31;;;;;;;5.15;4.65;;;;;;;12.69;100.00;163883.84;4997252;28;20029;-61
2022/07/03 03:16:06;;;;;;;4.90;4.50;;;;;;;12.66;100.00;163875.72;5009371;28;20053;-61
2022/07/03 03:18:35;;;;;;;5.78;4.95;;;;;;;12.62;100.00;163864.88;4997614;28;20034;-61
2022/07/03 03:21:03;;;;;;;4.60;4.00;;;;;;;12.58;100.00;163852.75;4990162;28;20042;-62
2022/07/03 03:23:52;;;;;;;6.45;5.32;;;;;;;12.52;100.00;163837.88;4991632;28;20103;-61
2022/07/03 03:26:19;;;;;;;5.75;4.55;;;;;;;12.45;100.00;163818.97;4989748;28;20046;-61
2022/07/03 03:28:45;;;;;;;5.78;4.70;;;;;;;12.40;100.00;163806.78;4999017;28;20022;-61
2022/07/03 03:31:11;;;;;;;9.73;5.10;;;;;;;12.33;100.00;163789.22;5009170;28;20048;-61
2022/07/03 03:33:41;;;;;;;6.20;4.55;;;;;;;12.28;100.00;163774.38;5010530;28;20022;-62
2022/07/03 03:36:11;;;;;;;7.45;6.47;;;;;;;12.26;100.00;163770.28;5007942;28;20042;-62
2022/07/03 03:38:38;;;;;;;5.50;4.65;;;;;;;12.15;100.00;163740.59;5011005;28;20423;-62
2022/07/03 03:41:03;;;;;;;6.30;4.45;;;;;;;12.14;100.00;163737.88;5009364;28;20108;-61
2022/07/03 03:43:30;;;;;;;7.75;7.15;;;;;;;12.20;100.00;163755.47;5005111;28;20034;-62
2022/07/03 03:45:56;;;;;;;8.32;7.53;;;;;;;12.25;100.00;163767.59;4988856;28;20136;-62
2022/07/03 03:48:21;;;;;;;10.45;8.02;;;;;;;12.32;100.00;163786.50;4991325;28;20502;-62
2022/07/03 03:50:47;;;;;;;11.88;9.07;;;;;;;12.41;100.00;163809.50;5008697;28;20042;-62
2022/07/03 03:53:12;;;;;;;13.95;8.77;;;;;;;12.46;100.00;163821.66;4996165;28;20492;-61
2022/07/03 03:56:04;;;;;;;10.50;9.50;;;;;;;12.51;100.00;163836.50;5008923;28;20037;-61
2022/07/03 03:58:32;;;;;;;10.07;9.23;;;;;;;12.53;100.00;163840.59;5010946;28;20442;-61
2022/07/03 04:00:58;;;;;;;9.75;6.80;;;;;;;12.59;100.00;163856.78;5008829;28;20501;-62
2022/07/03 04:03:25;;;;;;;8.57;7.78;;;;;;;12.57;100.00;163850.03;5005750;28;20026;-63
2022/07/03 04:05:50;;;;;;;8.98;8.18;;;;;;;12.57;100.00;163850.03;4997597;28;20121;-63
2022/07/03 04:08:16;;;;;;;9.93;7.82;;;;;;;12.54;100.00;163844.63;5010219;28;20478;-63
2022/07/03 04:10:41;;;;;;;17.50;8.63;;;;;;;12.52;100.00;163839.22;5009334;28;20043;-63
2022/07/03 04:13:06;;;;;;;10.90;9.80;;;;;;;12.54;100.00;163844.63;5008075;28;20208;-62
2022/07/03 04:15:32;;;;;;;13.88;9.30;;;;;;;12.57;100.00;163851.38;4992009;28;20129;-62
2022/07/03 04:17:57;;;;;;;12.68;9.27;;;;;;;12.60;100.00;163859.50;4990601;28;20018;-57
2022/07/03 04:20:23;;;;;;;10.98;9.93;;;;;;;12.63;100.00;163867.59;4989185;28;20049;-58
2022/07/03 04:22:50;;;;;;;13.23;9.57;;;;;;;12.72;100.00;163889.22;4988889;28;20545;-58
2022/07/03 04:25:16;;;;;;;12.88;9.88;;;;;;;12.82;100.00;163916.28;5007306;28;20045;-66
2022/07/03 04:27:41;;;;;;;13.85;10.35;;;;;;;12.95;100.00;163951.41;4992566;28;20038;-62
2022/07/03 04:30:10;;;;;;;10.18;9.18;;;;;;;13.12;100.00;163994.66;4988031;28;20038;-62
2022/07/03 04:32:35;;;;;;;;;;;;;;;13.30;100.00;164042.00;5012979;28;20192;-62
2022/07/03 04:35:00;;;;;;;9.40;8.70;;;;;;;13.49;100.00;164092.06;5015031;28;20025;-61
2022/07/03 04:37:26;;;;;;;10.05;9.15;;;;;;;13.69;100.00;164143.44;5011358;28;20021;-61
2022/07/03 04:39:51;;;;;;;10.05;9.25;;;;;;;13.91;100.00;164201.63;5014059;28;20026;-61
2022/07/03 04:42:16;;;;;;;10.75;9.10;;;;;;;14.12;100.00;164257.03;5014991;28;20083;-60
2022/07/03 04:44:42;;;;;;;10.23;9.32;;;;;;;14.33;100.00;164311.19;5017242;28;20025;-65
2022/07/03 04:47:07;;;;;;;8.88;8.00;;;;;;;14.53;100.00;164365.28;5014259;28;20022;-62
2022/07/03 04:49:32;;;;;;;7.97;7.32;;;;;;;14.74;100.00;164419.47;5011190;28;20026;-62
2022/07/03 04:51:58;;;;;;;10.68;7.25;;;;;;;14.94;100.00;164470.88;5017339;28;20033;-63
2022/07/03 04:54:23;;;;;;;11.10;7.20;;;;;;;15.14;100.00;164525.03;5016457;28;20492;-63
2022/07/03 04:56:48;;;;;;;9.25;7.45;;;;;;;15.31;100.00;164568.31;5016850;28;20413;-63
2022/07/03 04:59:14;;;;;;;9.32;7.55;;;;;;;15.47;100.00;164611.66;5022934;28;20090;-63
2022/07/03 05:01:39;;;;;;;8.68;7.40;;;;;;;15.62;100.00;164649.53;4991403;28;20518;-63
2022/07/03 05:04:04;;;;;;;8.00;6.03;;;;;;;15.74;100.00;164682.06;4993817;28;20417;-63
2022/07/03 05:06:30;;;;;;;6.80;5.53;;;;;;;15.89;100.00;164720.03;5011655;28;20064;-63
2022/07/03 05:08:55;;;;;;;12.13;5.82;;;;;;;16.02;100.00;164756.56;5009311;28;20508;-63
2022/07/03 05:11:21;;;;;;;6.38;5.72;;;;;;;16.16;100.00;164791.75;4990923;28;20436;-63
2022/07/03 05:13:46;;;;;;;5.85;5.05;;;;;;;16.26;100.00;164818.88;4991341;28;20030;-63
2022/07/03 05:16:12;;;;;;;8.00;5.47;;;;;;;16.37;100.00;164847.31;4990213;28;20097;-63
2022/07/03 05:18:37;;;;;;;6.30;5.22;;;;;;;16.42;100.00;164859.50;4993630;28;20034;-63
2022/07/03 05:21:03;;;;;;;7.80;6.05;;;;;;;16.44;100.00;164866.28;4991956;28;20096;-63
2022/07/03 05:23:28;;;;;;;10.38;6.50;;;;;;;16.45;100.00;164869.00;4992850;28;20080;-63
2022/07/03 05:25:55;;;;;;;11.98;6.22;;;;;;;16.52;100.00;164885.22;4997664;28;20041;-63
2022/07/03 05:28:20;;;;;;;8.15;6.22;;;;;;;16.57;100.00;164898.81;5000870;28;20054;-63
2022/07/03 05:30:46;;;;;;;7.38;5.78;;;;;;;16.60;100.00;164906.91;4990656;28;20038;-61
2022/07/03 05:33:11;;;;;;;8.60;5.18;;;;;;;16.57;100.00;164898.81;4999060;28;20027;-62
2022/07/03 05:35:36;;;;;;;5.32;4.82;;;;;;;16.54;100.00;164890.66;5004529;28;20046;-62
2022/07/03 05:38:02;;;;;;;9.32;5.63;;;;;;;16.58;100.00;164901.47;5011328;28;20042;-61
2022/07/03 05:40:27;;;;;;;6.63;5.15;;;;;;;16.48;100.00;164875.75;5003635;28;20046;-62
2022/07/03 05:42:53;;;;;;;6.55;5.90;;;;;;;16.44;100.00;164866.28;4993842;28;20041;-62
2022/07/03 05:45:19;;;;;;;6.38;5.38;;;;;;;16.37;100.00;164847.31;4990205;28;20145;-62
2022/07/03 05:47:44;;;;;;;5.40;4.88;;;;;;;16.30;100.00;164828.34;4993269;28;20324;-62
2022/07/03 05:50:10;;;;;;;7.88;6.35;;;;;;;16.29;100.00;164827.03;4991307;28;20043;-61
2022/07/03 05:52:35;;;;;;;8.23;5.13;;;;;;;16.41;100.00;164858.19;5005356;28;20112;-62
2022/07/03 05:55:01;;;;;;;6.60;5.90;;;;;;;16.50;100.00;164882.53;5015340;28;20044;-62
2022/07/03 05:57:26;;;;;;;6.43;5.50;;;;;;;16.60;100.00;164906.91;5018724;28;20037;-61
2022/07/03 05:59:51;;;;;;;7.00;4.88;;;;;;;16.75;100.00;164946.22;5018778;28;20017;-61
2022/07/03 06:02:17;;;;;;;8.10;6.22;;;;;;;16.85;100.00;164971.97;5022370;28;20734;-60
2022/07/03 06:04:42;;;;;;;4.95;4.40;;;;;;;16.89;100.00;164982.78;5016239;28;20085;-59
2022/07/03 06:07:08;;;;;;;5.25;4.50;;;;;;;17.07;100.00;165031.63;5018113;28;20932;-59
2022/07/03 06:09:33;;;;;;;6.55;4.22;;;;;;;17.08;100.00;165034.34;5020318;28;20036;-59
2022/07/03 06:11:59;;;;;;;8.23;4.75;;;;;;;17.22;100.00;165070.91;5018764;28;20092;-59
2022/07/03 06:14:24;;;;;;;4.07;3.78;;;;;;;17.35;100.00;165104.78;5021601;28;20025;-60
2022/07/03 06:16:49;;;;;;;6.43;3.78;;;;;;;17.50;100.00;165142.72;5016229;28;20042;-61
2022/07/03 06:19:15;;;;;;;3.83;3.53;;;;;;;17.54;100.00;165153.56;5022307;28;20043;-61
2022/07/03 06:21:40;;;;;;;4.20;3.47;;;;;;;17.69;100.00;165192.88;5019020;28;20081;-58
2022/07/03 06:24:06;;;;;;;6.03;3.85;;;;;;;17.76;100.00;165213.19;5018673;28;20018;-58
2022/07/03 06:26:32;;;;;;;7.65;2.90;;;;;;;17.99;100.00;165272.91;5020206;28;20647;-58
2022/07/03 06:28:57;;;;;;;3.35;3.08;;;;;;;18.15;100.00;165313.56;5019984;28;20018;-58
2022/07/03 06:31:22;;;;;;;5.25;2.60;;;;;;;18.33;100.00;165361.03;5016625;28;20046;-58
2022/07/03 06:33:48;;;;;;;3.40;3.08;;;;;;;18.55;100.00;165419.34;5017054;28;20018;-58
2022/07/03 06:36:13;;;;;;;10.18;3.13;;;;;;;18.83;100.00;165492.56;5016128;28;20041;-57
2022/07/03 06:38:38;;;;;;;4.40;2.70;;;;;;;19.13;100.00;165572.69;5025858;28;20040;-58
2022/07/03 06:41:04;;;;;;;4.78;2.80;;;;;;;19.80;100.00;165747.69;5016631;28;20038;-58
2022/07/03 06:43:29;;;;;;;8.30;3.38;;;;;;;20.26;100.00;165868.50;5009979;28;20105;-57
2022/07/03 06:45:54;;;;;;;3.88;3.17;;;;;;;20.70;100.00;165983.91;5009912;28;20042;-58
2022/07/03 06:48:20;;;;;;;6.10;2.63;;;;;;;21.02;100.00;166068.16;4996674;28;20084;-57
2022/07/03 06:50:46;;;;;;;4.00;3.08;;;;;;;21.24;100.00;166126.53;5006982;28;20056;-57
2022/07/03 06:53:11;;;;;;;5.22;2.42;;;;;;;21.29;100.00;166138.75;5001529;28;20024;-57
2022/07/03 06:55:36;;;;;;;3.30;2.63;;;;;;;21.48;100.00;166189.00;4997907;28;20678;-57
2022/07/03 06:58:02;;;;;;;5.35;3.35;;;;;;;21.82;100.00;166280.06;5000554;28;20668;-58
2022/07/03 07:00:27;;;;;;;6.95;3.13;;;;;;;21.95;100.00;166312.66;5015640;28;20052;-57
2022/07/03 07:02:52;;;;;;;6.75;2.50;;;;;;;21.89;100.00;166297.75;5011979;28;20060;-57
2022/07/03 07:05:18;;;;;;;5.55;2.03;;;;;;;22.07;100.00;166345.28;5012713;28;20053;-57
2022/07/03 07:07:43;;;;;;;9.90;5.00;;;;;;;22.21;100.00;166380.59;5014933;28;20047;-58
2022/07/03 07:10:09;;;;;;;4.40;2.42;;;;;;;22.12;100.00;166357.47;5011459;28;20358;-57
2022/07/03 07:12:34;;;;;;;5.75;2.63;;;;;;;22.26;100.00;166394.16;5016496;28;20037;-58
2022/07/03 07:15:00;;;;;;;7.05;2.17;;;;;;;22.59;100.00;166481.22;5015599;28;20524;-58
2022/07/03 07:17:25;;;;;;;3.53;2.80;;;;;;;22.72;100.00;166516.53;5020074;28;20409;-58
2022/07/03 07:19:50;;;;;;;6.22;1.95;;;;;;;22.93;100.00;166570.88;5015418;28;20025;-58
2022/07/03 07:22:16;;;;;;;5.60;1.83;;;;;;;22.68;100.00;166504.31;5014822;28;20034;-57
2022/07/03 07:24:41;;;;;;;7.75;2.63;;;;;;;22.43;100.00;166440.44;5013649;28;20033;-57
2022/07/03 07:27:06;;;;;;;7.32;2.53;;;;;;;21.91;100.00;166301.81;5018195;28;20057;-57
2022/07/03 07:29:32;;;;;;;6.72;1.48;;;;;;;21.30;100.00;166141.47;5008302;28;20030;-57
2022/07/03 07:31:57;;;;;;;6.13;2.15;;;;;;;21.67;100.00;166240.66;5013442;28;20038;-58
2022/07/03 07:34:22;;;;;;;1.98;1.77;;;;;;;21.82;100.00;166278.69;5019644;28;20567;-57
2022/07/03 07:36:47;;;;;;;5.70;1.27;;;;;;;22.01;100.00;166328.94;5015484;28;20041;-57
2022/07/03 07:39:13;;;;;;;2.55;1.52;;;;;;;21.99;100.00;166323.53;5015268;28;20033;-58
2022/07/03 07:41:38;;;;;;;5.15;1.75;;;;;;;21.77;100.00;166266.50;5016113;28;20041;-58
2022/07/03 07:44:04;;;;;;;1.67;1.58;;;;;;;21.89;100.00;166296.34;5015994;28;20037;-57
2022/07/03 07:46:30;;;;;;;3.67;1.45;;;;;;;21.67;100.00;166239.31;5008796;28;20128;-57
2022/07/03 07:48:55;;;;;;;3.80;2.20;;;;;;;21.85;100.00;166288.25;4998459;28;20041;-58
2022/07/03 07:51:21;;;;;;;5.82;2.00;;;;;;;22.27;100.00;166396.91;4996475;28;20046;-58
2022/07/03 07:53:46;;;;;;;3.40;2.00;;;;;;;22.28;100.00;166400.97;4998206;28;20022;-57
2022/07/03 07:56:12;;;;;;;7.00;2.05;;;;;;;22.06;100.00;166341.19;5008105;28;20053;-57
2022/07/03 07:58:37;;;;;;;6.15;1.50;;;;;;;22.29;100.00;166402.34;4998462;28;20035;-57
2022/07/03 08:06:43;;;;;;;3.40;1.60;;;;;;;22.83;100.00;166545.06;4994934;28;20045;-58
2022/07/03 08:09:09;;;;;;;3.40;2.78;;;;;;;23.40;100.00;166696.00;5003652;28;20034;-58
2022/07/03 08:11:34;;;;;;;4.00;2.38;;;;;;;23.59;100.00;166744.94;5007590;28;20038;-57
2022/07/03 08:13:59;;;;;;;5.57;1.90;;;;;;;23.26;100.00;166657.94;4998742;28;20018;-57
2022/07/03 08:16:25;;;;;;;2.85;2.30;;;;;;;24.08;100.00;166875.56;5002548;28;20473;-57
2022/07/03 08:18:52;;;;;;;4.25;1.13;;;;;;;24.74;100.00;167046.97;5003746;28;20022;-58
2022/07/03 08:21:17;;;;;;;5.68;2.20;;;;;;;24.44;100.00;166968.03;5002291;28;20536;-58
2022/07/03 08:23:43;;;;;;;3.92;1.90;;;;;;;24.68;100.00;167033.38;5000759;28;20034;-57
2022/07/03 08:26:08;;;;;;;5.95;2.45;;;;;;;24.74;100.00;167046.97;5008030;28;20046;-57
2022/07/03 08:28:33;;;;;;;3.35;2.67;;;;;;;24.53;100.00;166992.53;5002171;28;20054;-57
2022/07/03 08:30:59;;;;;;;3.45;1.73;;;;;;;24.67;100.00;167030.66;4988660;28;20045;-57
2022/07/03 08:33:24;;;;;;;2.90;1.52;;;;;;;24.91;100.00;167093.19;4992690;28;20021;-57
2022/07/03 08:35:50;;;;;;;3.78;1.88;;;;;;;24.86;100.00;167079.59;4992734;28;20041;-57
2022/07/03 08:38:15;;;;;;;4.88;2.60;;;;;;;24.57;100.00;167003.38;5013665;28;20072;-57
2022/07/03 08:40:42;;;;;;;4.13;1.83;;;;;;;24.17;100.00;166898.66;5012351;28;20502;-57
2022/07/03 08:43:08;;;;;;;6.10;2.15;;;;;;;24.48;100.00;166978.88;5014658;28;20042;-58
2022/07/03 08:45:37;;;;;;;4.63;2.60;;;;;;;24.16;100.00;166895.94;5021119;28;20041;-57
2022/07/03 08:48:05;;;;;;;2.95;2.40;;;;;;;24.12;100.00;166883.69;5018331;28;20034;-57
2022/07/03 08:50:32;;;;;;;5.15;2.55;;;;;;;23.64;100.00;166758.56;5019691;28;20048;-57
2022/07/03 08:52:59;;;;;;;7.68;2.53;;;;;;;23.56;100.00;166738.16;5019094;28;20072;-57
2022/07/03 08:55:24;;;;;;;4.95;2.85;;;;;;;23.63;100.00;166755.84;5015264;28;20033;-57
2022/07/03 08:57:50;;;;;;;6.80;3.08;;;;;;;23.34;100.00;166679.72;5017685;28;20084;-57
2022/07/03 09:00:18;;;;;;;9.05;2.45;;;;;;;24.08;100.00;166875.56;5014578;28;20902;-57
2022/07/03 09:02:46;;;;;;;4.60;2.92;;;;;;;24.27;100.00;166924.50;5017802;28;20022;-57
2022/07/03 09:05:13;;;;;;;3.45;2.50;;;;;;;25.34;100.00;167207.53;5017342;28;20429;-57
2022/07/03 09:07:40;;;;;;;4.43;2.20;;;;;;;25.20;100.00;167169.44;5021010;28;20033;-57
2022/07/03 09:10:16;;;;;;;4.15;1.90;;;;;;;25.11;100.00;167146.25;5019229;28;20045;-57
2022/07/03 09:12:44;;;;;;;3.35;2.30;;;;;;;25.16;100.00;167158.50;5020826;28;20029;-57
2022/07/03 09:15:10;;;;;;;3.95;2.10;;;;;;;25.60;100.00;167275.59;5008621;28;20101;-57
2022/07/03 09:17:36;;;;;;;4.70;2.05;;;;;;;25.60;100.00;167275.59;5001578;28;20042;-57
2022/07/03 09:20:05;;;;;;;5.25;2.35;;;;;;;25.63;100.00;167283.78;5000516;28;20044;-57
2022/07/03 09:22:33;;;;;;;5.15;2.10;;;;;;;25.91;100.00;167355.91;5019080;28;20029;-57
2022/07/03 09:25:07;;;;;;;4.07;1.90;;;;;;;24.96;100.00;167105.44;5019780;28;20416;-58
2022/07/03 09:27:33;;;;;;;6.38;2.00;;;;;;;24.84;100.00;167074.16;5018479;28;20077;-57
2022/07/03 09:30:02;;;;;;;4.28;2.05;;;;;;;24.66;100.00;167027.94;5014985;28;20041;-57
2022/07/03 09:32:36;;;;;;;2.85;1.92;;;;;;;25.15;100.00;167155.78;5022683;28;20018;-57
2022/07/03 09:35:21;;;;;;;3.92;1.70;;;;;;;25.83;100.00;167335.47;5014460;28;20042;-57
2022/07/03 09:37:54;;;;;;;11.48;2.00;;;;;;;24.95;100.00;167102.72;5019725;28;20029;-57
2022/07/03 09:40:20;;;;;;;5.30;1.85;;;;;;;24.65;100.00;167025.16;5015169;28;20583;-57
2022/07/03 09:42:56;;;;;;;2.08;1.88;;;;;;;25.62;100.00;167281.03;5021607;28;20033;-57
2022/07/03 09:45:22;;;;;;;4.22;1.40;;;;;;;26.10;100.00;167406.34;5011880;28;20052;-58
2022/07/03 09:47:47;;;;;;;2.30;1.77;;;;;;;26.08;100.00;167400.88;5019486;28;20037;-58
2022/07/03 09:50:13;;;;;;;3.50;1.80;;;;;;;25.94;100.00;167364.06;5021135;28;20346;-57
2022/07/03 09:52:47;;;;;;;4.60;1.98;;;;;;;25.30;100.00;167196.59;5023606;28;20092;-57
2022/07/03 09:55:13;;;;;;;3.85;1.70;;;;;;;25.60;100.00;167275.59;5023406;28;20432;-57
2022/07/03 09:57:58;;;;;;;3.78;1.60;;;;;;;25.22;100.00;167174.84;5022130;28;20033;-57
2022/07/03 10:00:34;;;;;;;2.63;1.52;;;;;;;25.08;100.00;167136.75;5020879;28;20037;-57
2022/07/03 10:03:08;;;;;;;7.53;1.95;;;;;;;25.49;100.00;167245.69;5022255;28;20018;-58
2022/07/03 10:05:36;;;;;;;7.03;1.27;;;;;;;25.80;100.00;167327.34;5017591;28;20065;-58
2022/07/03 10:08:03;;;;;;;;;;;;;;;25.48;100.00;167242.94;5010074;28;20519;-57
2022/07/03 10:10:33;;;;;;;5.25;1.60;;;;;;;24.32;100.00;166936.75;5020506;28;20541;-57
2022/07/03 10:12:59;;;;;;;2.97;1.67;;;;;;;23.69;100.00;166770.75;5019650;28;20026;-57
2022/07/03 10:15:26;;;;;;;4.90;1.33;;;;;;;23.62;100.00;166753.13;5018761;28;20065;-57
2022/07/03 10:17:53;;;;;;;6.85;1.55;;;;;;;23.66;100.00;166762.63;5021948;28;20036;-57
2022/07/03 10:20:30;;;;;;;7.97;2.40;;;;;;;24.34;100.00;166943.53;5013697;28;20093;-57
2022/07/03 10:22:56;;;;;;;3.28;1.45;;;;;;;24.61;100.00;167014.25;5010600;28;20524;-58
2022/07/03 10:25:22;;;;;;;3.22;1.63;;;;;;;24.78;100.00;167057.84;5014979;28;20048;-57
2022/07/03 10:27:49;;;;;;;9.88;1.65;;;;;;;24.74;100.00;167048.31;5019656;28;20049;-57
2022/07/03 10:30:16;;;;;;;7.07;2.60;;;;;;;24.64;100.00;167021.09;5018292;28;20044;-57
2022/07/03 10:32:45;;;;;;;5.18;2.25;;;;;;;24.44;100.00;166969.38;5021150;28;20078;-57
2022/07/03 10:35:13;;;;;;;2.95;1.58;;;;;;;24.90;100.00;167089.13;5014948;28;20079;-57
2022/07/03 10:38:02;;;;;;;4.10;1.70;;;;;;;25.12;100.00;167147.66;5017726;28;20469;-58
2022/07/03 10:46:24;;;;;;;3.13;0.95;;;;;;;24.16;100.00;166894.59;5006480;28;20588;-57
2022/07/03 10:48:52;;;;;;;1.88;1.60;;;;;;;24.87;100.00;167082.34;4997345;28;20101;-57
2022/07/03 10:51:17;;;;;;;;;;;;;;;25.30;100.00;167196.59;4989863;28;20055;-57
2022/07/03 10:53:42;;;;;;;1.98;1.00;;;;;;;25.33;100.00;167204.78;4974823;28;20385;-57
2022/07/03 10:56:08;;;;;;;5.45;2.35;;;;;;;25.69;100.00;167297.38;4972228;28;20042;-57
2022/07/03 10:58:56;;;;;;;1.35;0.88;;;;;;;26.64;100.00;167549.28;4971497;28;20019;-58
2022/07/03 11:01:27;;;;;;;2.10;0.98;;;;;;;26.73;99.26;167572.41;4977709;28;20066;-58
2022/07/03 11:03:57;;;;;;;4.50;1.00;;;;;;;26.84;94.78;167602.44;4981710;28;20038;-57
2022/07/03 11:06:43;;;;;;;2.80;1.25;;;;;;;26.37;94.82;167477.09;4979156;28;20108;-58
2022/07/03 11:09:10;;;;;;;5.32;1.88;;;;;;;26.21;94.61;167436.25;4976821;28;20080;-57
2022/07/03 11:11:57;;;;;;;7.25;2.72;;;;;;;26.00;97.05;167379.03;4980248;28;20035;-58
2022/07/03 11:14:23;;;;;;;1.95;1.63;;;;;;;26.81;91.28;167594.25;4981618;28;20102;-58
2022/07/03 11:16:49;;;;;;;0.73;0.63;;;;;;;26.05;93.44;167394.03;4979307;28;20039;-57
2022/07/03 11:19:25;;;;;;;4.15;0.90;;;;;;;27.66;96.12;167819.00;4974095;28;20427;-57
2022/07/03 11:21:55;;;;;;;9.63;1.95;;;;;;;27.63;88.54;167809.47;4977133;28;20505;-58
2022/07/03 11:24:39;;;;;;;6.30;1.23;;;;;;;26.79;92.37;167588.78;4978283;28;20027;-57
2022/07/03 11:27:19;;;;;;;2.42;0.73;;;;;;;25.84;93.01;167338.22;4977345;28;20051;-57
2022/07/03 11:29:54;;;;;;;5.65;1.30;;;;;;;25.73;92.48;167309.63;4979267;28;20042;-58
2022/07/03 11:32:43;;;;;;;2.50;0.90;;;;;;;24.59;91.80;167008.84;4980238;28;20043;-57
2022/07/03 11:35:08;;;;;;;1.38;0.63;;;;;;;24.58;90.81;167006.09;4984857;28;20030;-57